createdAt,value
2023-02-06T00:01:18.670Z,5.55
2023-02-06T00:03:45.987Z,5.70
2023-02-06T00:06:13.233Z,4.97
2023-02-06T00:08:41.007Z,5.93
2023-02-06T00:11:11.628Z,5.18
2023-02-06T00:13:39.406Z,5.93
2023-02-06T00:16:18.759Z,4.78
2023-02-06T00:18:46.903Z,4.25
2023-02-06T00:21:14.546Z,5.65
2023-02-06T00:23:42.497Z,5.60
2023-02-06T00:26:09.842Z,3.78
2023-02-06T00:28:40.458Z,5.65
2023-02-06T00:31:09.274Z,5.43
2023-02-06T00:33:37.247Z,6.00
2023-02-06T00:36:05.286Z,4.50
2023-02-06T00:38:33.194Z,4.28
2023-02-06T00:41:00.490Z,3.83
2023-02-06T00:43:28.218Z,4.53
2023-02-06T00:45:58.060Z,5.80
2023-02-06T00:48:25.450Z,4.63
2023-02-06T00:50:53.655Z,3.78
2023-02-06T00:53:21.863Z,4.50
2023-02-06T00:55:49.183Z,5.60
2023-02-06T00:58:16.522Z,4.40
2023-02-06T01:00:44.859Z,3.80
2023-02-06T01:03:12.444Z,4.60
2023-02-06T01:05:39.713Z,5.45
2023-02-06T01:08:07.072Z,3.95
2023-02-06T01:10:34.536Z,5.10
2023-02-06T01:13:02.198Z,4.32
2023-02-06T01:15:29.414Z,4.63
2023-02-06T01:17:56.957Z,4.72
2023-02-06T01:20:24.795Z,3.97
2023-02-06T01:22:52.367Z,4.47
2023-02-06T01:25:19.826Z,4.50
2023-02-06T01:27:48.162Z,4.13
2023-02-06T01:30:15.463Z,4.32
2023-02-06T01:32:43.253Z,5.68
2023-02-06T01:35:12.873Z,5.35
2023-02-06T01:37:41.616Z,5.53
2023-02-06T01:40:13.279Z,4.72
2023-02-06T01:42:41.100Z,4.78
2023-02-06T01:45:26.539Z,3.95
2023-02-06T01:48:02.179Z,4.30
2023-02-06T01:50:32.822Z,3.58
2023-02-06T01:53:01.286Z,4.43
2023-02-06T01:55:30.069Z,3.88
2023-02-06T01:58:01.899Z,3.55
2023-02-06T02:00:29.304Z,4.45
2023-02-06T02:02:56.751Z,3.70
2023-02-06T02:05:24.100Z,3.60
2023-02-06T02:08:01.341Z,3.17
2023-02-06T02:10:32.451Z,4.00
2023-02-06T02:12:59.720Z,3.17
2023-02-06T02:15:47.730Z,3.17
2023-02-06T02:18:33.208Z,5.18
2023-02-06T02:21:14.574Z,4.32
2023-02-06T02:23:51.566Z,2.77
2023-02-06T02:26:53.254Z,5.45
2023-02-06T02:29:49.286Z,3.88
2023-02-06T02:32:45.303Z,4.40
2023-02-06T02:35:24.581Z,2.70
2023-02-06T02:38:14.465Z,2.85
2023-02-06T02:40:44.897Z,2.42
2023-02-06T02:43:35.422Z,3.53
2023-02-06T02:46:15.348Z,3.17
2023-02-06T02:48:47.412Z,3.50
2023-02-06T02:51:16.994Z,2.92
2023-02-06T02:53:44.604Z,4.40
2023-02-06T02:56:24.013Z,2.72
2023-02-06T02:58:59.932Z,3.15
2023-02-06T03:01:54.343Z,3.05
2023-02-06T03:04:31.227Z,3.97
2023-02-06T03:07:33.342Z,3.60
2023-02-06T03:10:18.837Z,3.22
2023-02-06T03:13:03.304Z,3.40
2023-02-06T03:15:33.903Z,3.58
2023-02-06T03:20:32.961Z,3.53
2023-02-06T03:23:02.953Z,3.08
2023-02-06T03:25:42.688Z,3.65
2023-02-06T03:28:17.846Z,3.17
2023-02-06T03:30:49.117Z,3.25
2023-02-06T03:33:19.704Z,3.45
2023-02-06T03:35:47.159Z,3.95
2023-02-06T03:38:15.054Z,3.05
2023-02-06T03:40:47.464Z,4.38
2023-02-06T03:43:18.833Z,3.17
2023-02-06T03:45:52.016Z,3.15
2023-02-06T03:48:27.663Z,3.28
2023-02-06T03:50:57.794Z,2.97
2023-02-06T03:53:27.300Z,2.85
2023-02-06T03:55:59.342Z,2.88
2023-02-06T03:58:26.916Z,2.67
2023-02-06T04:00:54.429Z,4.15
2023-02-06T04:03:22.932Z,3.58
2023-02-06T04:05:50.262Z,2.78
2023-02-06T04:08:17.602Z,4.45
2023-02-06T04:10:44.958Z,3.17
2023-02-06T04:13:13.322Z,4.68
2023-02-06T04:15:40.602Z,3.20
2023-02-06T04:18:07.915Z,3.22
2023-02-06T04:20:40.798Z,3.17
2023-02-06T04:23:08.969Z,3.72
2023-02-06T04:25:36.520Z,2.95
2023-02-06T04:28:04.831Z,3.78
2023-02-06T04:30:32.499Z,3.58
2023-02-06T04:32:59.840Z,2.65
2023-02-06T04:35:27.185Z,3.55
2023-02-06T04:37:54.727Z,2.88
2023-02-06T04:40:22.119Z,2.67
2023-02-06T04:42:49.501Z,4.45
2023-02-06T04:45:16.919Z,3.25
2023-02-06T04:47:44.287Z,3.13
2023-02-06T04:50:11.621Z,2.75
2023-02-06T04:52:39.757Z,5.22
2023-02-06T04:55:07.632Z,4.90
2023-02-06T04:57:35.014Z,3.95
2023-02-06T05:00:02.450Z,3.72
2023-02-06T05:02:29.882Z,4.28
2023-02-06T05:04:57.172Z,3.85
2023-02-06T05:07:25.041Z,2.85
2023-02-06T05:09:53.416Z,3.40
2023-02-06T05:12:20.887Z,3.15
2023-02-06T05:14:48.150Z,2.90
2023-02-06T05:17:15.441Z,3.45
2023-02-06T05:19:42.836Z,3.35
2023-02-06T05:22:12.942Z,3.30
2023-02-06T05:24:40.116Z,2.55
2023-02-06T05:27:07.546Z,3.50
2023-02-06T05:29:34.702Z,2.90
2023-02-06T05:32:02.221Z,2.90
2023-02-06T05:34:29.584Z,3.58
2023-02-06T05:36:56.939Z,3.17
2023-02-06T05:39:24.571Z,2.78
2023-02-06T05:41:51.795Z,3.72
2023-02-06T05:44:19.284Z,3.70
2023-02-06T05:46:48.441Z,6.00
2023-02-06T05:49:16.067Z,4.20
2023-02-06T05:51:43.234Z,4.32
2023-02-06T05:54:10.475Z,3.55
2023-02-06T05:56:39.881Z,3.85
2023-02-06T05:59:07.192Z,3.22
2023-02-06T06:01:34.527Z,3.22
2023-02-06T06:04:02.175Z,3.47
2023-02-06T06:06:29.536Z,3.47
2023-02-06T06:08:56.777Z,2.72
2023-02-06T06:11:24.084Z,4.18
2023-02-06T06:13:51.377Z,3.10
2023-02-06T06:16:18.796Z,3.58
2023-02-06T06:18:46.107Z,3.83
2023-02-06T06:21:13.692Z,3.72
2023-02-06T06:23:40.997Z,3.22
2023-02-06T06:26:08.302Z,3.10
2023-02-06T06:28:40.473Z,3.50
2023-02-06T06:31:11.941Z,3.92
2023-02-06T06:33:40.081Z,3.38
2023-02-06T06:36:09.513Z,3.95
2023-02-06T06:38:37.400Z,3.75
2023-02-06T06:41:05.619Z,3.55
2023-02-06T06:43:34.266Z,3.47
2023-02-06T06:46:01.856Z,3.88
2023-02-06T06:48:29.183Z,4.35
2023-02-06T06:50:56.729Z,4.15
2023-02-06T06:53:24.023Z,3.75
2023-02-06T06:55:51.278Z,3.83
2023-02-06T06:58:18.637Z,2.90
2023-02-06T07:00:46.159Z,3.72
2023-02-06T07:03:13.547Z,3.67
2023-02-06T07:05:41.605Z,3.75
2023-02-06T07:08:09.316Z,3.50
2023-02-06T07:10:36.762Z,4.22
2023-02-06T07:13:04.484Z,4.00
2023-02-06T07:15:32.386Z,4.88
2023-02-06T07:17:59.865Z,5.25
2023-02-06T07:20:27.198Z,5.05
2023-02-06T07:22:54.630Z,6.03
2023-02-06T07:25:22.015Z,4.55
2023-02-06T07:27:49.423Z,4.78
2023-02-06T07:30:16.774Z,4.88
2023-02-06T07:32:44.225Z,5.80
2023-02-06T07:35:11.459Z,4.93
2023-02-06T07:37:38.771Z,4.82
2023-02-06T07:40:07.077Z,4.80
2023-02-06T07:42:34.428Z,5.18
2023-02-06T07:45:10.892Z,4.85
2023-02-06T07:47:38.406Z,5.15
2023-02-06T07:50:06.229Z,4.05
2023-02-06T07:52:33.583Z,4.80
2023-02-06T07:55:00.812Z,3.95
2023-02-06T07:57:28.103Z,4.95
2023-02-06T07:59:55.399Z,4.75
2023-02-06T08:02:22.745Z,5.60
2023-02-06T08:04:49.977Z,5.38
2023-02-06T08:07:18.038Z,4.68
2023-02-06T08:09:45.401Z,4.95
2023-02-06T08:12:12.688Z,5.32
2023-02-06T08:14:40.360Z,6.03
2023-02-06T08:17:08.129Z,5.25
2023-02-06T08:19:35.382Z,5.50
2023-02-06T08:22:02.839Z,5.25
2023-02-06T08:24:30.360Z,4.55
2023-02-06T08:26:57.696Z,4.78
2023-02-06T08:29:25.709Z,5.30
2023-02-06T08:31:53.329Z,5.43
2023-02-06T08:34:20.644Z,5.63
2023-02-06T08:36:48.420Z,5.82
2023-02-06T08:39:15.954Z,4.45
2023-02-06T08:41:44.433Z,5.90
2023-02-06T08:44:14.658Z,6.60
2023-02-06T08:46:43.477Z,5.60
2023-02-06T08:49:19.797Z,5.95
2023-02-06T08:51:49.749Z,5.65
2023-02-06T08:54:19.449Z,4.30
2023-02-06T08:56:47.485Z,4.65
2023-02-06T08:59:16.388Z,5.82
2023-02-06T09:01:45.800Z,5.95
2023-02-06T09:04:14.198Z,5.20
2023-02-06T09:06:44.091Z,6.13
2023-02-06T09:09:12.872Z,5.03
2023-02-06T09:11:40.517Z,5.72
2023-02-06T09:14:11.643Z,5.07
2023-02-06T09:16:38.923Z,6.28
2023-02-06T09:19:07.178Z,5.80
2023-02-06T09:21:36.599Z,6.97
2023-02-06T09:24:07.045Z,6.97
2023-02-06T09:26:53.387Z,5.88
2023-02-06T09:29:27.278Z,6.20
2023-02-06T09:31:54.699Z,6.00
2023-02-06T09:34:22.109Z,6.40
2023-02-06T09:36:49.544Z,5.95
2023-02-06T09:39:16.907Z,5.97
2023-02-06T09:42:11.466Z,5.72
2023-02-06T09:44:42.513Z,5.80
2023-02-06T09:47:32.556Z,6.10
2023-02-06T09:50:02.976Z,5.63
2023-02-06T09:52:55.949Z,4.97
2023-02-06T09:55:29.510Z,5.10
2023-02-06T09:58:19.278Z,5.50
2023-02-06T10:01:15.582Z,5.53
2023-02-06T10:03:46.099Z,5.07
2023-02-06T10:06:22.168Z,4.15
2023-02-06T10:08:54.623Z,6.60
2023-02-06T10:11:38.826Z,6.13
2023-02-06T10:14:22.462Z,5.65
2023-02-06T10:17:01.253Z,5.95
2023-02-06T10:19:46.850Z,5.95
2023-02-06T10:22:21.204Z,5.50
2023-02-06T10:25:38.026Z,5.80
2023-02-06T10:28:27.890Z,5.00
2023-02-06T10:30:58.239Z,6.07
2023-02-06T10:33:53.079Z,5.28
2023-02-06T10:36:26.326Z,5.38
2023-02-06T10:39:15.254Z,5.50
2023-02-06T10:41:54.363Z,5.55
2023-02-06T10:44:28.652Z,4.53
2023-02-06T10:46:57.233Z,4.95
2023-02-06T10:49:35.523Z,5.35
2023-02-06T10:52:23.846Z,4.35
2023-02-06T10:54:55.497Z,4.82
2023-02-06T10:57:25.130Z,3.67
2023-02-06T10:59:55.797Z,4.20
2023-02-06T11:02:23.169Z,5.75
2023-02-06T11:05:22.900Z,3.65
2023-02-06T11:07:56.630Z,4.05
2023-02-06T11:10:26.911Z,3.08
2023-02-06T11:13:13.990Z,3.85
2023-02-06T11:15:52.377Z,3.42
2023-02-06T11:18:24.575Z,2.83
2023-02-06T11:20:53.186Z,3.85
2023-02-06T11:23:28.220Z,3.00
2023-02-06T11:26:05.840Z,3.03
2023-02-06T11:28:35.539Z,3.20
2023-02-06T11:31:08.317Z,3.20
2023-02-06T11:33:42.501Z,3.10
2023-02-06T11:36:27.805Z,3.97
2023-02-06T11:39:00.777Z,3.35
2023-02-06T11:41:29.935Z,3.58
2023-02-06T11:44:02.820Z,3.38
2023-02-06T11:46:35.191Z,3.33
2023-02-06T11:49:21.948Z,4.05
2023-02-06T11:51:51.945Z,3.35
2023-02-06T11:54:38.572Z,3.35
2023-02-06T11:57:18.040Z,3.65
2023-02-06T12:00:00.851Z,4.15
2023-02-06T12:02:38.257Z,3.67
2023-02-06T12:05:14.842Z,3.80
2023-02-06T12:07:49.980Z,4.05
2023-02-06T12:10:19.801Z,3.97
2023-02-06T12:13:08.887Z,4.35
2023-02-06T12:15:48.167Z,3.15
2023-02-06T12:18:28.971Z,4.72
2023-02-06T12:21:00.281Z,4.20
2023-02-06T12:23:39.904Z,4.15
2023-02-06T12:26:17.920Z,3.35
2023-02-06T12:28:59.657Z,3.03
2023-02-06T12:31:34.773Z,4.25
2023-02-06T12:34:22.701Z,3.90
2023-02-06T12:37:08.850Z,3.30
2023-02-06T12:39:37.090Z,4.25
2023-02-06T12:42:29.194Z,3.75
2023-02-06T12:45:12.722Z,3.85
2023-02-06T12:47:44.305Z,4.40
2023-02-06T12:50:30.440Z,4.03
2023-02-06T12:53:14.526Z,4.20
2023-02-06T12:55:52.888Z,4.05
2023-02-06T12:58:28.228Z,4.05
2023-02-06T13:01:20.804Z,3.70
2023-02-06T13:03:57.183Z,3.35
2023-02-06T13:06:27.730Z,2.25
2023-02-06T13:09:01.030Z,3.83
2023-02-06T13:11:39.081Z,3.97
2023-02-06T13:14:33.008Z,2.72
2023-02-06T13:17:10.454Z,4.25
2023-02-06T13:19:38.071Z,3.33
2023-02-06T13:22:08.434Z,3.50
2023-02-06T13:24:40.348Z,2.35
2023-02-06T13:27:07.635Z,3.38
2023-02-06T13:29:40.041Z,3.90
2023-02-06T13:32:18.661Z,3.53
2023-02-06T13:34:49.238Z,3.22
2023-02-06T13:37:40.400Z,4.20
2023-02-06T13:40:35.366Z,3.20
2023-02-06T13:43:26.263Z,3.75
2023-02-06T13:48:51.513Z,2.85
2023-02-06T13:51:43.754Z,2.40
2023-02-06T13:54:32.789Z,3.05
2023-02-06T13:57:39.963Z,3.47
2023-02-06T14:00:26.693Z,3.03
2023-02-06T14:03:15.538Z,3.22
2023-02-06T14:05:58.005Z,3.53
2023-02-06T14:08:37.304Z,5.45
2023-02-06T14:11:19.866Z,2.70
2023-02-06T14:14:17.976Z,3.97
2023-02-06T14:16:49.753Z,3.20
2023-02-06T14:19:42.864Z,3.15
2023-02-06T14:22:16.041Z,3.92
2023-02-06T14:25:17.565Z,2.60
2023-02-06T14:27:48.302Z,4.28
2023-02-06T14:33:47.742Z,2.83
2023-02-06T14:36:45.228Z,3.63
2023-02-06T14:39:50.196Z,3.30
2023-02-06T14:42:20.838Z,3.25
2023-02-06T14:47:24.571Z,2.65
2023-02-06T14:49:54.076Z,2.70
2023-02-06T14:52:30.112Z,4.35
2023-02-06T14:54:57.659Z,3.92
2023-02-06T14:57:28.054Z,3.10
2023-02-06T14:59:58.916Z,4.13
2023-02-06T15:04:56.723Z,3.10
2023-02-06T15:07:29.921Z,4.20
2023-02-06T15:10:13.915Z,3.53
2023-02-06T15:12:41.805Z,3.47
2023-02-06T15:15:22.345Z,4.13
2023-02-06T15:18:07.877Z,3.38
2023-02-06T15:20:44.225Z,3.13
2023-02-06T15:23:38.402Z,2.97
2023-02-06T15:26:28.314Z,3.08
2023-02-06T15:28:58.382Z,3.13
2023-02-06T15:31:27.423Z,3.15
2023-02-06T15:33:58.453Z,3.63
2023-02-06T15:36:31.196Z,4.15
2023-02-06T15:39:05.449Z,3.92
2023-02-06T15:41:34.608Z,3.13
2023-02-06T15:44:09.642Z,3.97
2023-02-06T15:46:38.126Z,4.03
2023-02-06T15:49:06.959Z,3.95
2023-02-06T15:51:53.775Z,4.35
2023-02-06T15:54:24.286Z,4.60
2023-02-06T15:56:56.873Z,3.55
2023-02-06T15:59:27.361Z,4.90
2023-02-06T16:01:58.388Z,3.25
2023-02-06T16:04:37.506Z,3.17
2023-02-06T16:07:18.356Z,3.92
2023-02-06T16:12:37.629Z,4.10
2023-02-06T16:15:34.977Z,3.17
2023-02-06T16:18:29.030Z,3.50
2023-02-06T16:21:18.773Z,4.03
2023-02-06T16:23:54.156Z,3.65
2023-02-06T16:26:27.176Z,4.95
2023-02-06T16:29:00.240Z,3.03
2023-02-06T16:31:29.605Z,4.45
2023-02-06T16:34:03.442Z,4.25
2023-02-06T16:36:33.029Z,3.22
2023-02-06T16:39:04.330Z,3.85
2023-02-06T16:41:35.594Z,2.80
2023-02-06T16:44:04.975Z,4.50
2023-02-06T16:46:32.510Z,2.78
2023-02-06T16:49:00.547Z,3.72
2023-02-06T16:51:30.015Z,3.88
2023-02-06T16:53:58.598Z,3.83
2023-02-06T16:56:26.059Z,3.13
2023-02-06T16:58:53.534Z,3.38
2023-02-06T17:01:25.819Z,4.18
2023-02-06T17:03:54.399Z,3.63
2023-02-06T17:06:24.965Z,4.18
2023-02-06T17:08:54.761Z,4.00
2023-02-06T17:11:22.154Z,3.60
2023-02-06T17:13:49.674Z,4.60
2023-02-06T17:16:20.397Z,7.03
2023-02-06T17:21:18.561Z,9.90
2023-02-06T17:23:46.513Z,10.85
2023-02-06T17:26:18.098Z,9.50
2023-02-06T17:28:45.934Z,8.18
2023-02-06T17:31:13.508Z,10.13
2023-02-06T17:33:41.184Z,8.05
2023-02-06T17:36:15.334Z,7.35
2023-02-06T17:38:42.711Z,7.05
2023-02-06T17:41:10.070Z,6.90
2023-02-06T17:43:37.613Z,6.18
2023-02-06T17:46:06.424Z,6.90
2023-02-06T17:48:36.696Z,6.00
2023-02-06T17:51:05.400Z,4.95
2023-02-06T17:53:36.055Z,5.90
2023-02-06T17:58:41.566Z,4.18
2023-02-06T18:01:18.407Z,4.72
2023-02-06T18:03:47.949Z,4.47
2023-02-06T18:06:15.549Z,5.05
2023-02-06T18:08:43.812Z,3.95
2023-02-06T18:11:16.479Z,4.10
2023-02-06T18:13:45.376Z,4.07
2023-02-06T18:16:22.083Z,3.80
2023-02-06T18:18:50.252Z,3.80
2023-02-06T18:21:19.605Z,4.47
2023-02-06T18:23:48.560Z,4.22
2023-02-06T18:26:17.171Z,3.78
2023-02-06T18:28:44.521Z,4.63
2023-02-06T18:31:41.683Z,4.20
2023-02-06T18:34:09.032Z,4.57
2023-02-06T18:36:37.378Z,3.88
2023-02-06T18:39:05.527Z,4.28
2023-02-06T18:41:51.254Z,4.50
2023-02-06T18:44:18.652Z,4.32
2023-02-06T18:46:46.056Z,4.72
2023-02-06T18:49:13.617Z,6.60
2023-02-06T18:51:40.834Z,5.53
2023-02-06T18:54:10.165Z,6.50
2023-02-06T18:56:38.616Z,5.22
2023-02-06T18:59:06.432Z,5.82
2023-02-06T19:01:33.897Z,5.15
2023-02-06T19:04:01.507Z,6.32
2023-02-06T19:06:34.138Z,5.50
2023-02-06T19:09:04.298Z,5.65
2023-02-06T19:11:31.587Z,5.20
2023-02-06T19:13:59.002Z,4.22
2023-02-06T19:16:30.365Z,5.55
2023-02-06T19:18:57.835Z,5.18
2023-02-06T19:21:26.216Z,4.95
2023-02-06T19:23:58.467Z,4.10
2023-02-06T19:26:26.955Z,5.35
2023-02-06T19:28:55.338Z,4.95
2023-02-06T19:31:25.899Z,5.13
2023-02-06T19:33:56.113Z,4.53
2023-02-06T19:36:25.798Z,5.25
2023-02-06T19:38:59.184Z,4.38
2023-02-06T19:41:28.910Z,4.47
2023-02-06T19:43:57.457Z,4.25
2023-02-06T19:46:27.323Z,4.43
2023-02-06T19:48:56.580Z,4.70
2023-02-06T19:51:30.296Z,4.57
2023-02-06T19:53:59.136Z,4.88
2023-02-06T19:56:31.063Z,5.57
2023-02-06T19:59:00.797Z,4.63
2023-02-06T20:01:30.492Z,4.83
2023-02-06T20:04:02.498Z,4.82
2023-02-06T20:06:34.858Z,5.63
2023-02-06T20:09:04.015Z,4.68
2023-02-06T20:11:32.768Z,5.40
2023-02-06T20:14:00.199Z,5.13
2023-02-06T20:16:31.580Z,4.70
2023-02-06T20:19:04.913Z,4.53
2023-02-06T20:21:36.489Z,4.53
2023-02-06T20:24:07.821Z,4.72
2023-02-06T20:26:38.060Z,5.13
2023-02-06T20:29:07.112Z,4.80
2023-02-06T20:31:42.118Z,4.93
2023-02-06T20:34:09.604Z,6.00
2023-02-06T20:36:36.934Z,8.43
2023-02-06T20:39:04.481Z,5.95
2023-02-06T20:41:32.465Z,7.47
2023-02-06T20:44:01.739Z,7.93
2023-02-06T20:46:32.710Z,8.23
2023-02-06T20:49:02.346Z,10.98
2023-02-06T20:51:31.638Z,9.40
2023-02-06T20:53:59.026Z,9.75
2023-02-06T20:56:27.083Z,10.38
2023-02-06T20:58:54.657Z,8.13
2023-02-06T21:01:26.149Z,6.38
2023-02-06T21:03:59.713Z,6.60
2023-02-06T21:06:28.116Z,6.60
2023-02-06T21:09:00.270Z,6.40
2023-02-06T21:11:30.421Z,4.90
2023-02-06T21:14:01.695Z,5.75
2023-02-06T21:16:30.753Z,5.72
2023-02-06T21:18:59.282Z,5.43
2023-02-06T21:21:26.811Z,5.78
2023-02-06T21:23:55.951Z,5.40
2023-02-06T21:26:27.273Z,5.75
2023-02-06T21:28:55.041Z,6.70
2023-02-06T21:31:37.335Z,6.68
2023-02-06T21:34:11.238Z,6.20
2023-02-06T21:36:39.626Z,5.97
2023-02-06T21:39:08.327Z,7.60
2023-02-06T21:41:36.800Z,7.72
2023-02-06T21:44:04.410Z,9.00
2023-02-06T21:46:32.131Z,7.30
2023-02-06T21:48:59.726Z,6.63
2023-02-06T21:51:27.443Z,6.82
2023-02-06T21:53:56.789Z,6.07
2023-02-06T21:56:26.478Z,5.78
2023-02-06T21:58:56.970Z,6.55
2023-02-06T22:03:57.381Z,6.93
2023-02-06T22:06:24.979Z,5.85
2023-02-06T22:08:54.307Z,6.30
2023-02-06T22:11:29.843Z,5.57
2023-02-06T22:13:59.388Z,6.10
2023-02-06T22:16:27.816Z,4.97
2023-02-06T22:18:55.950Z,4.85
2023-02-06T22:21:25.356Z,5.63
2023-02-06T22:23:55.623Z,7.03
2023-02-06T22:26:24.791Z,7.32
2023-02-06T22:28:52.240Z,7.55
2023-02-06T22:31:23.751Z,7.95
2023-02-06T22:33:51.231Z,7.03
2023-02-06T22:36:21.370Z,7.40
2023-02-06T22:38:53.572Z,6.25
2023-02-06T22:41:21.214Z,8.30
2023-02-06T22:43:50.096Z,8.65
2023-02-06T22:46:23.708Z,9.30
2023-02-06T22:48:51.962Z,8.93
2023-02-06T22:51:20.629Z,9.48
2023-02-06T22:53:48.871Z,10.25
2023-02-06T22:56:28.073Z,9.27
2023-02-06T22:59:02.587Z,10.52
2023-02-06T23:01:33.369Z,13.27
2023-02-06T23:04:01.825Z,10.77
2023-02-06T23:06:31.444Z,9.90
2023-02-06T23:09:00.341Z,11.23
2023-02-06T23:11:28.684Z,11.52
2023-02-06T23:14:01.671Z,11.27
2023-02-06T23:16:31.398Z,10.80
2023-02-06T23:18:59.990Z,10.30
2023-02-06T23:21:27.613Z,13.45
2023-02-06T23:23:56.864Z,12.98
2023-02-06T23:26:24.306Z,13.32
2023-02-06T23:28:51.903Z,15.68
2023-02-06T23:31:19.277Z,12.88
2023-02-06T23:33:46.705Z,15.20
2023-02-06T23:36:20.193Z,12.60
2023-02-06T23:38:48.212Z,13.88
2023-02-06T23:41:18.907Z,14.05
2023-02-06T23:43:51.651Z,13.57
2023-02-06T23:46:20.120Z,13.82
2023-02-06T23:48:48.969Z,14.65
2023-02-06T23:51:17.666Z,13.95
2023-02-06T23:53:45.254Z,14.60
2023-02-06T23:56:15.411Z,14.10
2023-02-06T23:58:42.946Z,14.38
